Terminal Aerodrome Forecast
Issued by NWS Atlanta, GA

Home | Current Version | Previous Version | Text Only | Print | Product List | Glossary On
Versions: 1 2 3 4 5 6 7 8 9 10 11 12 13 14 15 16 17 18 19 20 21 22 23 24 25 26 27 28 29 30 31 32 33 34 35 36 37 38
000
FTUS42 KFFC 252151 AAB
TAFATL
TAF AMD
KATL 252151Z 2522/2624 21010G16KT P6SM SCT035 BKN050
      TEMPO 2522/2602 VRB15G30KT 3SM TSRA BKN020CB
     FM260200 23010KT P6SM BKN040
     FM260800 24010KT 5SM BR BKN012 BKN035
     FM261300 28012KT P6SM BKN020
     FM261600 29015G25KT P6SM BKN045=

USA.gov is the U.S. government's official web portal to all federal, state and local government web resources and services.